createdAt,value
2018-08-08T00:02:24.311Z,6.43
2018-08-08T00:04:52.524Z,6.40
2018-08-08T00:07:20.760Z,6.17
2018-08-08T00:09:48.987Z,5.83
2018-08-08T00:12:17.196Z,6.30
2018-08-08T00:14:45.380Z,5.93
2018-08-08T00:17:13.616Z,6.13
2018-08-08T00:19:41.835Z,6.70
2018-08-08T00:22:10.046Z,6.23
2018-08-08T00:24:38.228Z,6.20
2018-08-08T00:27:06.452Z,6.57
2018-08-08T00:29:34.687Z,5.83
2018-08-08T00:32:03.166Z,6.40
2018-08-08T00:34:31.357Z,6.57
2018-08-08T00:36:59.548Z,6.20
2018-08-08T00:39:27.731Z,6.30
2018-08-08T00:41:55.938Z,6.30
2018-08-08T00:44:24.140Z,6.50
2018-08-08T00:46:52.336Z,6.77
2018-08-08T00:49:20.531Z,6.10
2018-08-08T00:51:48.717Z,6.40
2018-08-08T00:54:16.916Z,6.27
2018-08-08T00:56:45.107Z,6.00
2018-08-08T00:59:13.313Z,6.33
2018-08-08T01:01:41.533Z,5.83
2018-08-08T01:04:09.755Z,5.93
2018-08-08T01:06:37.952Z,6.23
2018-08-08T01:09:07.192Z,6.80
2018-08-08T01:11:35.408Z,6.73
2018-08-08T01:14:03.807Z,6.60
2018-08-08T01:16:32.017Z,6.73
2018-08-08T01:19:00.211Z,6.87
2018-08-08T01:21:28.420Z,6.77
2018-08-08T01:23:56.620Z,6.77
2018-08-08T01:26:24.799Z,6.37
2018-08-08T01:28:52.966Z,7.00
2018-08-08T01:31:21.157Z,7.23
2018-08-08T01:33:49.353Z,7.07
2018-08-08T01:36:17.580Z,6.77
2018-08-08T01:38:45.774Z,6.60
2018-08-08T01:41:13.976Z,6.80
2018-08-08T01:43:42.163Z,6.30
2018-08-08T01:46:10.376Z,7.47
2018-08-08T01:48:38.604Z,7.43
2018-08-08T01:51:06.852Z,7.03
2018-08-08T01:53:35.033Z,6.67
2018-08-08T01:56:03.247Z,6.50
2018-08-08T01:58:31.440Z,7.13
2018-08-08T02:00:59.654Z,6.07
2018-08-08T02:03:27.935Z,6.10
2018-08-08T02:06:01.142Z,6.67
2018-08-08T02:08:29.423Z,7.53
2018-08-08T02:10:57.644Z,7.10
2018-08-08T02:13:25.852Z,7.03
2018-08-08T02:15:54.263Z,7.00
2018-08-08T02:18:22.455Z,7.47
2018-08-08T02:20:50.677Z,7.50
2018-08-08T02:23:18.887Z,7.40
2018-08-08T02:25:47.075Z,7.17
2018-08-08T02:28:15.293Z,7.57
2018-08-08T02:30:43.508Z,7.07
2018-08-08T02:33:11.700Z,7.50
2018-08-08T02:35:40.048Z,7.17
2018-08-08T02:38:08.298Z,7.60
2018-08-08T02:40:36.489Z,7.83
2018-08-08T02:43:04.694Z,7.40
2018-08-08T02:45:32.881Z,7.63
2018-08-08T02:48:01.177Z,7.40
2018-08-08T02:50:29.391Z,7.80
2018-08-08T02:52:57.584Z,7.90
2018-08-08T02:55:25.777Z,7.50
2018-08-08T02:57:53.987Z,7.70
2018-08-08T03:00:22.204Z,7.80
2018-08-08T03:02:50.415Z,7.00
2018-08-08T03:05:18.626Z,7.80
2018-08-08T03:07:46.816Z,6.97
2018-08-08T03:10:16.386Z,7.37
2018-08-08T03:12:44.584Z,7.70
2018-08-08T03:15:14.639Z,7.60
2018-08-08T03:17:42.920Z,7.77
2018-08-08T03:20:12.903Z,7.53
2018-08-08T03:22:41.097Z,7.60
2018-08-08T03:25:10.860Z,7.70
2018-08-08T03:27:39.079Z,7.57
2018-08-08T03:30:15.988Z,7.40
2018-08-08T03:32:44.223Z,7.93
2018-08-08T03:35:12.569Z,7.43
2018-08-08T03:37:40.920Z,7.70
2018-08-08T03:40:10.771Z,7.50
2018-08-08T03:42:39.332Z,7.67
2018-08-08T03:45:08.250Z,7.27
2018-08-08T03:47:36.604Z,8.03
2018-08-08T03:50:05.684Z,7.53
2018-08-08T03:52:33.880Z,7.13
2018-08-08T03:55:02.165Z,7.47
2018-08-08T03:57:30.347Z,7.03
2018-08-08T03:59:58.580Z,7.30
2018-08-08T04:02:26.815Z,6.47
2018-08-08T04:04:55.004Z,6.87
2018-08-08T04:07:23.199Z,7.23
2018-08-08T04:09:51.500Z,7.43
2018-08-08T04:12:19.696Z,7.73
2018-08-08T04:14:47.888Z,7.67
2018-08-08T04:17:21.316Z,7.37
2018-08-08T04:19:49.505Z,8.60
2018-08-08T04:22:17.694Z,8.17
2018-08-08T04:24:45.932Z,10.23
2018-08-08T04:27:14.161Z,9.87
2018-08-08T04:29:42.364Z,9.57
2018-08-08T04:32:10.581Z,9.10
2018-08-08T04:34:38.764Z,8.60
2018-08-08T04:37:07.508Z,8.67
2018-08-08T04:39:35.935Z,8.20
2018-08-08T04:42:04.755Z,7.93
2018-08-08T04:44:33.569Z,7.83
2018-08-08T04:47:02.406Z,8.43
2018-08-08T04:49:30.940Z,8.43
2018-08-08T04:51:59.540Z,8.17
2018-08-08T04:54:28.505Z,8.37
2018-08-08T04:56:57.169Z,8.37
2018-08-08T04:59:25.599Z,9.07
2018-08-08T05:01:53.776Z,8.40
2018-08-08T05:04:21.984Z,8.90
2018-08-08T05:06:50.661Z,8.97
2018-08-08T05:09:18.924Z,8.57
2018-08-08T05:11:47.133Z,9.60
2018-08-08T05:14:15.355Z,11.03
2018-08-08T05:16:43.536Z,9.70
2018-08-08T05:19:11.756Z,9.67
2018-08-08T05:21:39.956Z,10.23
2018-08-08T05:24:08.202Z,13.57
2018-08-08T05:26:36.407Z,15.07
2018-08-08T05:29:04.720Z,10.97
2018-08-08T05:31:32.898Z,9.97
2018-08-08T05:34:01.105Z,9.97
2018-08-08T05:36:29.363Z,10.73
2018-08-08T05:38:57.561Z,9.03
2018-08-08T05:41:25.762Z,9.17
2018-08-08T05:43:53.952Z,9.00
2018-08-08T05:46:22.163Z,9.50
2018-08-08T05:48:50.452Z,9.23
2018-08-08T05:51:18.652Z,8.83
2018-08-08T05:53:47.113Z,9.73
2018-08-08T05:56:15.640Z,9.63
2018-08-08T05:58:44.418Z,10.03
2018-08-08T06:01:12.901Z,10.30
2018-08-08T06:03:41.477Z,10.27
2018-08-08T06:06:09.960Z,10.03
2018-08-08T06:08:38.672Z,8.70
2018-08-08T06:11:07.175Z,8.53
2018-08-08T06:13:35.819Z,7.80
2018-08-08T06:16:04.249Z,8.50
2018-08-08T06:18:32.853Z,8.50
2018-08-08T06:21:01.221Z,8.50
2018-08-08T06:23:29.658Z,8.60
2018-08-08T06:25:58.160Z,7.60
2018-08-08T06:28:26.593Z,7.67
2018-08-08T06:30:55.142Z,7.47
2018-08-08T06:33:23.801Z,7.33
2018-08-08T06:35:52.336Z,6.77
2018-08-08T06:38:20.719Z,7.03
2018-08-08T06:40:49.101Z,7.13
2018-08-08T06:43:17.337Z,6.93
2018-08-08T06:45:45.546Z,7.40
2018-08-08T06:48:13.829Z,7.03
2018-08-08T06:50:42.108Z,6.67
2018-08-08T06:53:10.440Z,7.40
2018-08-08T06:55:38.535Z,7.50
2018-08-08T06:58:06.972Z,7.10
2018-08-08T07:00:35.380Z,7.17
2018-08-08T07:03:03.987Z,7.23
2018-08-08T07:05:33.281Z,7.10
2018-08-08T07:08:01.600Z,6.67
2018-08-08T07:10:31.072Z,7.27
2018-08-08T07:12:59.404Z,6.97
2018-08-08T07:15:27.680Z,7.03
2018-08-08T07:17:55.887Z,6.37
2018-08-08T07:20:24.108Z,6.20
2018-08-08T07:22:52.343Z,6.50
2018-08-08T07:25:20.844Z,6.37
2018-08-08T07:27:49.409Z,6.53
2018-08-08T07:30:18.896Z,6.13
2018-08-08T07:32:47.280Z,6.47
2018-08-08T07:35:15.651Z,6.37
2018-08-08T07:37:45.558Z,6.10
2018-08-08T07:40:15.249Z,6.27
2018-08-08T07:42:43.821Z,7.13
2018-08-08T07:45:15.610Z,6.50
2018-08-08T07:47:43.923Z,7.17
2018-08-08T07:50:13.228Z,6.57
2018-08-08T07:52:41.765Z,6.23
2018-08-08T07:55:11.174Z,6.07
2018-08-08T07:57:39.400Z,6.00
2018-08-08T08:00:11.451Z,7.37
2018-08-08T08:02:39.683Z,7.13
2018-08-08T08:05:07.938Z,6.20
2018-08-08T08:07:36.184Z,6.80
2018-08-08T08:10:04.971Z,7.33
2018-08-08T08:12:33.257Z,6.83
2018-08-08T08:15:01.483Z,6.67
2018-08-08T08:17:30.224Z,6.20
2018-08-08T08:19:58.488Z,6.00
2018-08-08T08:22:26.815Z,5.70
2018-08-08T08:24:55.024Z,5.50
2018-08-08T08:27:23.204Z,5.90
2018-08-08T08:29:51.499Z,5.67
2018-08-08T08:32:19.903Z,5.40
2018-08-08T08:34:48.098Z,5.70
2018-08-08T08:37:16.329Z,5.93
2018-08-08T08:39:44.575Z,5.70
2018-08-08T08:42:12.809Z,6.10
2018-08-08T08:44:41.015Z,5.43
2018-08-08T08:47:09.270Z,6.47
2018-08-08T08:49:37.479Z,5.87
2018-08-08T08:52:05.821Z,6.03
2018-08-08T08:54:34.036Z,6.10
2018-08-08T08:57:02.265Z,6.10
2018-08-08T08:59:30.505Z,6.83
2018-08-08T09:01:58.721Z,5.40
2018-08-08T09:04:27.244Z,6.00
2018-08-08T09:06:55.864Z,6.17
2018-08-08T09:09:24.101Z,6.17
2018-08-08T09:11:52.463Z,5.80
2018-08-08T09:14:20.722Z,5.27
2018-08-08T09:16:48.976Z,5.67
2018-08-08T09:19:17.163Z,5.37
2018-08-08T09:21:45.424Z,5.07
2018-08-08T09:24:13.655Z,4.70
2018-08-08T09:26:41.864Z,5.27
2018-08-08T09:29:10.070Z,5.07
2018-08-08T09:31:38.583Z,4.70
2018-08-08T09:34:07.065Z,4.90
2018-08-08T09:36:35.272Z,4.70
2018-08-08T09:39:03.751Z,5.03
2018-08-08T09:41:31.997Z,4.73
2018-08-08T09:44:00.203Z,4.80
2018-08-08T09:46:28.463Z,4.80
2018-08-08T09:48:56.660Z,4.63
2018-08-08T09:51:25.026Z,4.73
2018-08-08T09:53:53.241Z,5.10
2018-08-08T09:56:21.543Z,4.50
2018-08-08T09:58:49.707Z,4.90
2018-08-08T10:01:23.354Z,4.90
2018-08-08T10:03:57.005Z,5.30
2018-08-08T10:06:25.216Z,5.10
2018-08-08T10:08:53.432Z,5.67
2018-08-08T10:11:21.960Z,5.63
2018-08-08T10:13:50.163Z,5.07
2018-08-08T10:16:18.339Z,4.80
2018-08-08T10:18:46.538Z,5.13
2018-08-08T10:21:14.752Z,4.90
2018-08-08T10:23:43.004Z,5.17
2018-08-08T10:26:11.165Z,4.43
2018-08-08T10:28:39.373Z,4.53
2018-08-08T10:31:07.565Z,4.30
2018-08-08T10:33:36.846Z,4.77
2018-08-08T10:36:05.622Z,4.33
2018-08-08T10:38:33.847Z,4.50
2018-08-08T10:41:02.048Z,3.67
2018-08-08T10:43:30.259Z,3.73
2018-08-08T10:45:58.438Z,3.33
2018-08-08T10:48:26.700Z,3.40
2018-08-08T10:50:54.891Z,2.83
2018-08-08T10:53:23.084Z,2.53
2018-08-08T10:55:51.285Z,2.67
2018-08-08T10:58:19.496Z,3.07
2018-08-08T11:00:47.691Z,3.10
2018-08-08T11:03:15.970Z,3.00
2018-08-08T11:05:44.512Z,2.50
2018-08-08T11:08:12.727Z,2.70
2018-08-08T11:10:40.952Z,2.87
2018-08-08T11:13:09.455Z,2.80
2018-08-08T11:15:37.683Z,3.10
2018-08-08T11:18:05.914Z,3.40
2018-08-08T11:20:34.085Z,3.40
2018-08-08T11:23:02.612Z,3.43
2018-08-08T11:25:31.047Z,3.30
2018-08-08T11:27:59.677Z,3.60
2018-08-08T11:30:28.127Z,3.77
2018-08-08T11:32:56.410Z,3.10
2018-08-08T11:35:24.702Z,3.73
2018-08-08T11:37:53.303Z,3.53
2018-08-08T11:40:21.694Z,3.10
2018-08-08T11:42:50.106Z,3.70
2018-08-08T11:45:18.790Z,3.47
2018-08-08T11:47:47.143Z,3.37
2018-08-08T11:50:15.565Z,2.83
2018-08-08T11:52:43.927Z,3.70
2018-08-08T11:55:12.334Z,3.23
2018-08-08T11:57:40.783Z,3.57
2018-08-08T12:00:09.147Z,3.10
2018-08-08T12:02:37.520Z,2.97
2018-08-08T12:05:06.257Z,3.33
2018-08-08T12:07:34.636Z,3.20
2018-08-08T12:10:03.267Z,3.60
2018-08-08T12:12:31.763Z,3.30
2018-08-08T12:15:00.128Z,3.17
2018-08-08T12:17:28.429Z,3.20
2018-08-08T12:19:56.712Z,3.03
2018-08-08T12:22:25.089Z,3.17
2018-08-08T12:24:53.360Z,3.50
2018-08-08T12:27:21.593Z,3.07
2018-08-08T12:29:49.937Z,4.00
2018-08-08T12:32:18.765Z,2.97
2018-08-08T12:34:47.096Z,3.90
2018-08-08T12:37:15.555Z,3.30
2018-08-08T12:39:44.027Z,3.33
2018-08-08T12:42:12.488Z,4.83
2018-08-08T12:44:40.780Z,4.10
2018-08-08T12:47:09.138Z,3.50
2018-08-08T12:49:37.503Z,3.07
2018-08-08T12:52:06.385Z,3.70
2018-08-08T12:54:34.729Z,3.70
2018-08-08T12:57:03.256Z,3.90
2018-08-08T12:59:31.784Z,3.83
2018-08-08T13:02:00.355Z,3.30
2018-08-08T13:04:28.642Z,3.70
2018-08-08T13:06:56.995Z,3.80
2018-08-08T13:09:25.547Z,3.40
2018-08-08T13:11:53.871Z,4.03
2018-08-08T13:14:22.220Z,3.57
2018-08-08T13:16:51.579Z,3.97
2018-08-08T13:19:19.769Z,3.47
2018-08-08T13:21:47.966Z,4.13
2018-08-08T13:24:16.290Z,3.73
2018-08-08T13:26:44.427Z,4.17
2018-08-08T13:29:12.636Z,3.53
2018-08-08T13:31:40.856Z,3.83
2018-08-08T13:34:09.075Z,3.70
2018-08-08T13:36:37.329Z,3.67
2018-08-08T13:39:08.538Z,3.60
2018-08-08T13:41:36.746Z,3.83
2018-08-08T13:44:04.985Z,4.17
2018-08-08T13:46:33.210Z,4.17
2018-08-08T13:49:01.411Z,4.27
2018-08-08T13:51:29.596Z,4.47
2018-08-08T13:53:57.797Z,3.70
2018-08-08T13:56:26.000Z,3.80
2018-08-08T13:58:54.281Z,4.67
2018-08-08T14:01:23.509Z,4.57
2018-08-08T14:03:51.725Z,3.87
2018-08-08T14:06:19.903Z,5.00
2018-08-08T14:08:48.123Z,4.40
2018-08-08T14:11:16.360Z,3.73
2018-08-08T14:13:44.560Z,4.33
2018-08-08T14:16:12.736Z,3.83
2018-08-08T14:18:40.996Z,4.60
2018-08-08T14:21:09.148Z,5.20
2018-08-08T14:23:37.355Z,4.60
2018-08-08T14:26:05.900Z,4.43
2018-08-08T14:28:34.104Z,4.30
2018-08-08T14:31:02.292Z,4.27
2018-08-08T14:33:30.484Z,4.23
2018-08-08T14:35:58.723Z,4.50
2018-08-08T14:38:26.915Z,4.93
2018-08-08T14:40:55.111Z,3.80
2018-08-08T14:43:23.300Z,4.03
2018-08-08T14:45:51.501Z,4.40
2018-08-08T14:48:19.708Z,4.30
2018-08-08T14:50:48.033Z,4.80
2018-08-08T14:53:16.204Z,3.87
2018-08-08T14:55:44.407Z,4.97
2018-08-08T14:58:12.583Z,4.03
2018-08-08T15:00:40.877Z,4.50
2018-08-08T15:03:09.063Z,4.20
2018-08-08T15:05:37.283Z,4.10
2018-08-08T15:08:05.526Z,4.63
2018-08-08T15:10:33.712Z,4.33
2018-08-08T15:13:01.968Z,4.97
2018-08-08T15:15:30.191Z,4.43
2018-08-08T15:17:58.437Z,4.03
2018-08-08T15:20:26.639Z,4.53
2018-08-08T15:22:54.877Z,4.03
2018-08-08T15:25:23.097Z,4.50
2018-08-08T15:27:51.301Z,4.17
2018-08-08T15:30:19.484Z,4.00
2018-08-08T15:32:47.676Z,4.43
2018-08-08T15:35:15.856Z,4.20
2018-08-08T15:37:44.281Z,4.47
2018-08-08T15:40:12.338Z,4.57
2018-08-08T15:42:40.535Z,4.87
2018-08-08T15:45:10.229Z,5.80
2018-08-08T15:47:38.456Z,4.83
2018-08-08T15:50:08.415Z,4.40
2018-08-08T15:52:36.643Z,4.40
2018-08-08T15:55:05.425Z,5.13
2018-08-08T15:57:33.751Z,5.13
2018-08-08T16:00:01.956Z,4.40
2018-08-08T16:02:30.181Z,4.57
2018-08-08T16:04:58.336Z,4.67
2018-08-08T16:07:26.569Z,6.03
2018-08-08T16:09:54.841Z,6.03
2018-08-08T16:12:23.036Z,5.37
2018-08-08T16:14:51.225Z,4.20
2018-08-08T16:17:19.411Z,4.40
2018-08-08T16:19:47.612Z,4.30
2018-08-08T16:22:15.868Z,5.03
2018-08-08T16:24:44.090Z,4.47
2018-08-08T16:27:12.297Z,4.97
2018-08-08T16:29:40.506Z,4.60
2018-08-08T16:32:08.704Z,5.17
2018-08-08T16:34:36.924Z,4.57
2018-08-08T16:37:05.295Z,5.60
2018-08-08T16:39:33.496Z,4.17
2018-08-08T16:42:01.712Z,6.23
2018-08-08T16:44:29.912Z,4.63
2018-08-08T16:46:58.125Z,5.83
2018-08-08T16:49:26.372Z,4.77
2018-08-08T16:51:54.560Z,5.20
2018-08-08T16:54:22.757Z,5.67
2018-08-08T16:56:50.964Z,5.27
2018-08-08T16:59:19.160Z,5.40
2018-08-08T17:01:47.363Z,5.10
2018-08-08T17:04:15.596Z,5.67
2018-08-08T17:06:43.784Z,4.70
2018-08-08T17:09:12.440Z,5.30
2018-08-08T17:11:40.817Z,6.50
2018-08-08T17:14:09.039Z,5.47
2018-08-08T17:16:38.024Z,5.80
2018-08-08T17:19:06.259Z,5.73
2018-08-08T17:21:34.434Z,5.20
2018-08-08T17:24:02.736Z,5.83
2018-08-08T17:26:30.964Z,5.40
2018-08-08T17:28:59.147Z,6.13
2018-08-08T17:31:27.438Z,6.43
2018-08-08T17:33:55.563Z,5.53
2018-08-08T17:36:23.756Z,6.00
2018-08-08T17:38:51.931Z,6.47
2018-08-08T17:41:20.188Z,5.20
2018-08-08T17:43:48.660Z,5.17
2018-08-08T17:46:16.586Z,5.53
2018-08-08T17:48:44.781Z,5.50
2018-08-08T17:51:13.006Z,5.73
2018-08-08T17:53:41.210Z,5.77
2018-08-08T17:56:09.472Z,5.07
2018-08-08T17:58:37.685Z,5.20
2018-08-08T18:01:05.872Z,6.10
2018-08-08T18:03:34.072Z,5.33
2018-08-08T18:06:02.349Z,5.50
2018-08-08T18:08:30.556Z,5.50
2018-08-08T18:10:58.756Z,5.60
2018-08-08T18:13:26.982Z,5.67
2018-08-08T18:15:55.187Z,5.83
2018-08-08T18:18:23.386Z,5.10
2018-08-08T18:20:51.638Z,5.53
2018-08-08T18:23:19.833Z,5.40
2018-08-08T18:25:48.060Z,5.57
2018-08-08T18:28:16.232Z,5.17
2018-08-08T18:30:44.452Z,5.80
2018-08-08T18:33:12.724Z,5.33
2018-08-08T18:35:40.896Z,5.50
2018-08-08T18:38:09.169Z,5.70
2018-08-08T18:40:37.300Z,5.47
2018-08-08T18:43:05.501Z,5.60
2018-08-08T18:45:33.694Z,5.53
2018-08-08T18:48:01.968Z,5.53
2018-08-08T18:50:30.188Z,5.80
2018-08-08T18:52:58.383Z,5.43
2018-08-08T18:55:26.581Z,6.00
2018-08-08T18:57:54.840Z,5.40
2018-08-08T19:00:23.035Z,5.53
2018-08-08T19:02:51.261Z,5.80
2018-08-08T19:05:19.454Z,5.70
2018-08-08T19:07:47.632Z,5.80
2018-08-08T19:10:15.856Z,11.20
2018-08-08T19:12:44.084Z,8.17
2018-08-08T19:15:12.271Z,5.70
2018-08-08T19:17:40.471Z,6.70
2018-08-08T19:20:08.680Z,6.23
2018-08-08T19:22:36.909Z,10.50
2018-08-08T19:25:05.281Z,6.70
2018-08-08T19:27:33.451Z,6.37
2018-08-08T19:30:01.680Z,8.23
2018-08-08T19:32:29.860Z,6.50
2018-08-08T19:34:58.047Z,10.23
2018-08-08T19:37:26.254Z,6.77
2018-08-08T19:39:54.452Z,7.00
2018-08-08T19:42:22.642Z,9.23
2018-08-08T19:44:50.844Z,6.77
2018-08-08T19:47:19.032Z,7.30
2018-08-08T19:49:47.266Z,6.53
2018-08-08T19:52:15.457Z,15.83
2018-08-08T19:54:43.688Z,11.90
2018-08-08T19:57:11.839Z,13.17
2018-08-08T19:59:40.069Z,7.90
2018-08-08T20:02:08.292Z,6.60
2018-08-08T20:04:36.496Z,6.10
2018-08-08T20:07:04.723Z,6.87
2018-08-08T20:09:32.936Z,5.80
2018-08-08T20:12:01.153Z,6.20
2018-08-08T20:14:29.351Z,6.50
2018-08-08T20:16:57.547Z,5.33
2018-08-08T20:19:25.769Z,7.20
2018-08-08T20:21:53.972Z,6.23
2018-08-08T20:24:22.155Z,5.33
2018-08-08T20:26:50.380Z,6.57
2018-08-08T20:29:18.594Z,5.90
2018-08-08T20:31:46.803Z,5.37
2018-08-08T20:34:14.999Z,7.20
2018-08-08T20:36:43.192Z,5.73
2018-08-08T20:39:11.408Z,5.67
2018-08-08T20:41:39.728Z,5.70
2018-08-08T20:44:08.372Z,5.90
2018-08-08T20:46:36.581Z,5.93
2018-08-08T20:49:04.848Z,5.47
2018-08-08T20:51:33.165Z,5.90
2018-08-08T20:54:01.384Z,6.53
2018-08-08T20:56:29.601Z,5.43
2018-08-08T20:58:57.819Z,6.87
2018-08-08T21:01:26.024Z,6.33
2018-08-08T21:03:54.225Z,5.87
2018-08-08T21:06:22.481Z,5.40
2018-08-08T21:08:50.760Z,5.97
2018-08-08T21:11:18.956Z,5.97
2018-08-08T21:13:47.149Z,5.23
2018-08-08T21:16:15.339Z,5.90
2018-08-08T21:18:43.554Z,5.80
2018-08-08T21:21:11.752Z,6.20
2018-08-08T21:23:40.006Z,6.67
2018-08-08T21:26:08.266Z,6.53
2018-08-08T21:28:36.451Z,5.90
2018-08-08T21:31:04.683Z,5.83
2018-08-08T21:33:32.898Z,6.00
2018-08-08T21:36:01.076Z,6.30
2018-08-08T21:38:29.289Z,5.73
2018-08-08T21:40:57.479Z,5.90
2018-08-08T21:43:25.709Z,6.20
2018-08-08T21:45:53.909Z,6.27
2018-08-08T21:48:22.104Z,6.40
2018-08-08T21:50:50.449Z,6.60
2018-08-08T21:53:18.887Z,6.07
2018-08-08T21:55:58.527Z,6.27
2018-08-08T21:58:38.048Z,6.43
2018-08-08T22:01:17.481Z,6.60
2018-08-08T22:03:56.966Z,6.37
2018-08-08T22:06:36.503Z,6.37
2018-08-08T22:09:16.084Z,6.10
2018-08-08T22:11:58.456Z,5.93
2018-08-08T22:14:37.970Z,6.53
2018-08-08T22:17:17.655Z,6.97
2018-08-08T22:19:46.359Z,6.60
2018-08-08T22:22:14.556Z,6.30
2018-08-08T22:24:42.759Z,6.47
2018-08-08T22:27:10.974Z,6.47
2018-08-08T22:29:39.171Z,6.20
2018-08-08T22:32:07.656Z,6.43
2018-08-08T22:34:35.856Z,6.07
2018-08-08T22:37:04.108Z,6.57
2018-08-08T22:39:32.307Z,6.47
2018-08-08T22:42:00.496Z,6.93
2018-08-08T22:44:28.708Z,6.13
2018-08-08T22:46:56.943Z,7.00
2018-08-08T22:49:25.124Z,6.13
2018-08-08T22:51:53.307Z,6.80
2018-08-08T22:54:21.492Z,6.60
2018-08-08T22:56:49.723Z,6.77
2018-08-08T22:59:17.948Z,6.57
2018-08-08T23:01:46.143Z,6.87
2018-08-08T23:04:14.385Z,7.13
2018-08-08T23:06:42.567Z,6.90
2018-08-08T23:09:11.704Z,7.77
2018-08-08T23:11:39.922Z,6.83
2018-08-08T23:14:08.148Z,6.70
2018-08-08T23:16:36.383Z,6.73
2018-08-08T23:19:04.573Z,6.83
2018-08-08T23:21:32.772Z,5.97
2018-08-08T23:24:01.624Z,7.67
2018-08-08T23:26:29.833Z,6.53
2018-08-08T23:28:58.028Z,6.77
2018-08-08T23:31:26.220Z,7.27
2018-08-08T23:33:54.402Z,7.13
2018-08-08T23:36:22.661Z,6.10
2018-08-08T23:38:50.895Z,6.13
2018-08-08T23:41:19.104Z,7.17
2018-08-08T23:43:47.300Z,6.67
2018-08-08T23:46:15.496Z,6.77
2018-08-08T23:48:43.739Z,6.90
2018-08-08T23:51:12.055Z,6.83
2018-08-08T23:53:40.288Z,6.97
2018-08-08T23:56:08.720Z,7.33
2018-08-08T23:58:36.987Z,7.10
